キンシャサ の空港の天気 - METARとTAF

キンシャサ/ヌジリ国際空港 ( FZAA / FIH ) - コンゴ民主共和国 キンシャサ
飛行場実況気象(Metar)
観測時間04/27 04:00 WAT (04/27 03:00 UTC)
風向・風速静穏 0m/s
視程10km以上
天気現象
全天の4割程度の雲 雲底高度 490m
全天の8割程度の雲 雲底高度 3050m
気温24℃
湿度89%
気圧1011hPa
METARFZAA 270300Z 00000KT 9999 SCT016 BKN100 24/22 Q1011 NOSIG
過去の天気等 Google飛行場航空写真 Wunderground天気予報

過去48時間のMETAR

飛行場予報(TAF)
発表時間: 4/27 00:00 WAT (4/26 23:00 UTC)
予報対象時間: 27日1時 WAT ~ 28日7時 WAT
風向・風速南西 2m/s
視程8,000m
全天の8割程度の雲 雲底高度 430m
27日11時 WAT ~ 27日13時 WAT に徐々に
風向・風速北西 5m/s
全天の4割程度の雲 雲底高度 670m
少しの積乱雲 雲底高度 910m
27日16時 WAT ~ 27日21時 WAT に 確率 30% で一時的に
天気現象
27日23時 WAT ~ 28日1時 WAT に徐々に
風向・風速静穏
全天の8割程度の雲 雲底高度 430m
TAF FZAA 262300Z 2700/2806 22004KT 8000 BKN014
BECMG 2710/2712 32010KT SCT022 FEW030CB
PROB30 TEMPO 2715/2720 TS
BECMG 2722/2800 00000KT BKN014